Creede, Colorado
Current Conditions -  °F | °C
As of 1:34 AM on Friday 31 Oct 2014 (Local Time) from KCPW Reporting Station
Clear Clear  
Wind Chill: 23°   Ceiling: Unl
Heat Index: 34°   Visibility: 10mi
Dew Point: 14°   Wind: 18mph
Humidity: 44%   Direction: 220°SW
Pressure: 30.58"   Gusts: 24mph
Location:  37.85°N, 106.93°W
Report Text: KCPW 310734Z AUTO 22016G21KT 10SM CLR 01/M10 A3058 RMK AO2
Loading
Personal Weather Stations






























Interactive Weather Map
Tropical Storm Tracking
New forecast layout! Learn more

10-Day Weather Forecast

Advertisements
Track Severe Weather on mobile